sensor_id;sensor_type;location;lat;lon;timestamp;temperature;humidity
73137;DHT22;62977;45.636;11.750;2022-12-20T00:01:13;2.50;82.40
73137;DHT22;62977;45.636;11.750;2022-12-20T00:03:40;2.60;82.60
73137;DHT22;62977;45.636;11.750;2022-12-20T00:06:06;2.50;82.60
73137;DHT22;62977;45.636;11.750;2022-12-20T00:08:32;2.60;82.10
73137;DHT22;62977;45.636;11.750;2022-12-20T00:11:00;2.50;82.30
73137;DHT22;62977;45.636;11.750;2022-12-20T00:13:26;2.30;82.40
73137;DHT22;62977;45.636;11.750;2022-12-20T00:16:12;2.60;82.40
73137;DHT22;62977;45.636;11.750;2022-12-20T00:18:39;2.60;82.40
73137;DHT22;62977;45.636;11.750;2022-12-20T00:21:07;2.40;82.90
73137;DHT22;62977;45.636;11.750;2022-12-20T00:23:34;2.40;82.40
73137;DHT22;62977;45.636;11.750;2022-12-20T00:26:09;2.10;82.60
73137;DHT22;62977;45.636;11.750;2022-12-20T00:28:35;2.20;82.80
73137;DHT22;62977;45.636;11.750;2022-12-20T00:31:02;2.20;83.20
73137;DHT22;62977;45.636;11.750;2022-12-20T00:33:28;2.40;83.40
73137;DHT22;62977;45.636;11.750;2022-12-20T00:35:55;2.40;83.10
73137;DHT22;62977;45.636;11.750;2022-12-20T00:38:22;2.20;83.00
73137;DHT22;62977;45.636;11.750;2022-12-20T00:41:02;2.40;82.90
73137;DHT22;62977;45.636;11.750;2022-12-20T00:43:29;2.40;82.80
73137;DHT22;62977;45.636;11.750;2022-12-20T00:45:55;2.30;82.40
73137;DHT22;62977;45.636;11.750;2022-12-20T00:48:21;2.10;83.10
73137;DHT22;62977;45.636;11.750;2022-12-20T00:50:47;2.20;83.30
73137;DHT22;62977;45.636;11.750;2022-12-20T00:53:13;2.00;83.30
73137;DHT22;62977;45.636;11.750;2022-12-20T00:55:42;2.10;83.20
73137;DHT22;62977;45.636;11.750;2022-12-20T00:58:08;2.20;83.10
73137;DHT22;62977;45.636;11.750;2022-12-20T01:00:35;2.10;82.90
73137;DHT22;62977;45.636;11.750;2022-12-20T01:03:01;2.30;83.20
73137;DHT22;62977;45.636;11.750;2022-12-20T01:05:27;2.20;83.10
73137;DHT22;62977;45.636;11.750;2022-12-20T01:07:52;2.40;83.00
73137;DHT22;62977;45.636;11.750;2022-12-20T01:10:18;2.20;82.80
73137;DHT22;62977;45.636;11.750;2022-12-20T01:12:44;2.30;82.90
73137;DHT22;62977;45.636;11.750;2022-12-20T01:15:10;2.40;83.30
73137;DHT22;62977;45.636;11.750;2022-12-20T01:17:36;2.40;83.10
73137;DHT22;62977;45.636;11.750;2022-12-20T01:20:02;2.50;82.90
73137;DHT22;62977;45.636;11.750;2022-12-20T01:22:28;2.50;83.00
73137;DHT22;62977;45.636;11.750;2022-12-20T01:24:54;2.20;82.90
73137;DHT22;62977;45.636;11.750;2022-12-20T01:27:20;2.20;82.90
73137;DHT22;62977;45.636;11.750;2022-12-20T01:29:45;2.50;82.90
73137;DHT22;62977;45.636;11.750;2022-12-20T01:32:11;2.50;83.00
73137;DHT22;62977;45.636;11.750;2022-12-20T01:34:37;2.30;82.90
73137;DHT22;62977;45.636;11.750;2022-12-20T01:37:03;2.40;82.90
73137;DHT22;62977;45.636;11.750;2022-12-20T01:39:28;2.40;82.80
73137;DHT22;62977;45.636;11.750;2022-12-20T01:41:54;2.40;82.60
73137;DHT22;62977;45.636;11.750;2022-12-20T01:46:47;2.50;82.50
73137;DHT22;62977;45.636;11.750;2022-12-20T01:49:23;2.70;82.50
73137;DHT22;62977;45.636;11.750;2022-12-20T01:51:54;2.60;82.70
73137;DHT22;62977;45.636;11.750;2022-12-20T01:54:35;2.70;82.60
73137;DHT22;62977;45.636;11.750;2022-12-20T01:57:16;2.60;82.50
73137;DHT22;62977;45.636;11.750;2022-12-20T01:59:45;2.60;82.70
73137;DHT22;62977;45.636;11.750;2022-12-20T02:02:13;2.50;82.50
73137;DHT22;62977;45.636;11.750;2022-12-20T02:04:39;2.40;82.30
73137;DHT22;62977;45.636;11.750;2022-12-20T02:07:05;2.40;82.70
73137;DHT22;62977;45.636;11.750;2022-12-20T02:09:33;2.50;82.70
73137;DHT22;62977;45.636;11.750;2022-12-20T02:12:19;2.50;83.00
73137;DHT22;62977;45.636;11.750;2022-12-20T02:31:00;2.60;82.20
73137;DHT22;62977;45.636;11.750;2022-12-20T02:33:28;2.60;82.50
73137;DHT22;62977;45.636;11.750;2022-12-20T02:35:54;2.60;82.80
73137;DHT22;62977;45.636;11.750;2022-12-20T02:38:31;2.60;82.50
73137;DHT22;62977;45.636;11.750;2022-12-20T02:43:37;2.60;82.30
73137;DHT22;62977;45.636;11.750;2022-12-20T02:46:23;2.40;82.20
73137;DHT22;62977;45.636;11.750;2022-12-20T02:48:51;2.50;82.40
73137;DHT22;62977;45.636;11.750;2022-12-20T02:51:20;2.40;82.10
73137;DHT22;62977;45.636;11.750;2022-12-20T02:53:48;2.60;82.30
73137;DHT22;62977;45.636;11.750;2022-12-20T03:01:38;2.60;82.10
73137;DHT22;62977;45.636;11.750;2022-12-20T03:04:05;2.60;82.30
73137;DHT22;62977;45.636;11.750;2022-12-20T03:06:32;2.50;82.30
73137;DHT22;62977;45.636;11.750;2022-12-20T03:08:58;2.60;82.00
73137;DHT22;62977;45.636;11.750;2022-12-20T03:11:24;2.70;81.80
73137;DHT22;62977;45.636;11.750;2022-12-20T03:13:50;2.50;82.00
73137;DHT22;62977;45.636;11.750;2022-12-20T03:16:15;2.50;82.30
73137;DHT22;62977;45.636;11.750;2022-12-20T03:18:41;2.50;82.40
73137;DHT22;62977;45.636;11.750;2022-12-20T03:21:07;2.30;82.20
73137;DHT22;62977;45.636;11.750;2022-12-20T03:23:33;2.40;82.50
73137;DHT22;62977;45.636;11.750;2022-12-20T03:25:58;2.40;82.80
73137;DHT22;62977;45.636;11.750;2022-12-20T03:28:24;2.70;82.50
73137;DHT22;62977;45.636;11.750;2022-12-20T03:30:50;2.70;82.30
73137;DHT22;62977;45.636;11.750;2022-12-20T03:33:15;2.80;82.00
73137;DHT22;62977;45.636;11.750;2022-12-20T03:35:41;2.60;82.10
73137;DHT22;62977;45.636;11.750;2022-12-20T03:38:07;2.90;82.10
73137;DHT22;62977;45.636;11.750;2022-12-20T03:40:33;2.70;82.00
73137;DHT22;62977;45.636;11.750;2022-12-20T03:42:58;2.60;82.00
73137;DHT22;62977;45.636;11.750;2022-12-20T03:45:24;2.50;82.00
73137;DHT22;62977;45.636;11.750;2022-12-20T03:47:50;2.70;81.90
73137;DHT22;62977;45.636;11.750;2022-12-20T03:50:15;2.70;81.90
73137;DHT22;62977;45.636;11.750;2022-12-20T03:52:41;2.50;81.60
73137;DHT22;62977;45.636;11.750;2022-12-20T03:55:07;2.40;82.00
73137;DHT22;62977;45.636;11.750;2022-12-20T03:57:34;2.50;82.30
73137;DHT22;62977;45.636;11.750;2022-12-20T03:59:59;2.70;82.30
73137;DHT22;62977;45.636;11.750;2022-12-20T04:02:25;2.60;82.10
73137;DHT22;62977;45.636;11.750;2022-12-20T04:04:51;2.60;81.90
73137;DHT22;62977;45.636;11.750;2022-12-20T04:07:17;2.70;82.20
73137;DHT22;62977;45.636;11.750;2022-12-20T04:09:42;2.50;82.00
73137;DHT22;62977;45.636;11.750;2022-12-20T04:12:08;2.60;82.00
73137;DHT22;62977;45.636;11.750;2022-12-20T04:14:34;2.80;81.70
73137;DHT22;62977;45.636;11.750;2022-12-20T04:17:00;2.50;81.80
73137;DHT22;62977;45.636;11.750;2022-12-20T04:19:26;2.20;82.10
73137;DHT22;62977;45.636;11.750;2022-12-20T04:21:52;2.50;82.10
73137;DHT22;62977;45.636;11.750;2022-12-20T04:24:20;2.50;82.40
73137;DHT22;62977;45.636;11.750;2022-12-20T04:26:46;2.40;82.30
73137;DHT22;62977;45.636;11.750;2022-12-20T04:29:11;2.40;82.30
73137;DHT22;62977;45.636;11.750;2022-12-20T04:31:37;2.60;82.50
73137;DHT22;62977;45.636;11.750;2022-12-20T04:34:03;2.60;82.20
73137;DHT22;62977;45.636;11.750;2022-12-20T04:36:28;2.40;82.40
73137;DHT22;62977;45.636;11.750;2022-12-20T04:38:54;2.50;82.00
73137;DHT22;62977;45.636;11.750;2022-12-20T04:41:20;2.60;81.70
73137;DHT22;62977;45.636;11.750;2022-12-20T04:43:50;2.30;82.20
73137;DHT22;62977;45.636;11.750;2022-12-20T04:46:16;2.20;82.50
73137;DHT22;62977;45.636;11.750;2022-12-20T04:48:42;2.30;82.40
73137;DHT22;62977;45.636;11.750;2022-12-20T04:51:08;2.30;82.40
73137;DHT22;62977;45.636;11.750;2022-12-20T04:53:34;2.40;82.40
73137;DHT22;62977;45.636;11.750;2022-12-20T04:56:13;2.30;82.70
73137;DHT22;62977;45.636;11.750;2022-12-20T04:58:39;2.30;82.80
73137;DHT22;62977;45.636;11.750;2022-12-20T05:01:05;2.20;82.80
73137;DHT22;62977;45.636;11.750;2022-12-20T05:03:31;2.60;82.70
73137;DHT22;62977;45.636;11.750;2022-12-20T05:05:57;2.50;82.40
73137;DHT22;62977;45.636;11.750;2022-12-20T05:08:22;2.50;82.60
73137;DHT22;62977;45.636;11.750;2022-12-20T05:10:48;2.50;82.80
73137;DHT22;62977;45.636;11.750;2022-12-20T05:13:14;2.60;82.40
73137;DHT22;62977;45.636;11.750;2022-12-20T05:15:41;2.50;82.40
73137;DHT22;62977;45.636;11.750;2022-12-20T05:18:06;2.40;82.20
73137;DHT22;62977;45.636;11.750;2022-12-20T05:20:32;2.60;82.10
73137;DHT22;62977;45.636;11.750;2022-12-20T05:22:58;2.70;82.30
73137;DHT22;62977;45.636;11.750;2022-12-20T05:25:44;2.60;81.90
73137;DHT22;62977;45.636;11.750;2022-12-20T05:28:29;2.80;82.10
73137;DHT22;62977;45.636;11.750;2022-12-20T05:30:56;2.80;81.70
73137;DHT22;62977;45.636;11.750;2022-12-20T05:33:22;2.80;81.80
73137;DHT22;62977;45.636;11.750;2022-12-20T05:35:47;2.90;82.00
73137;DHT22;62977;45.636;11.750;2022-12-20T05:38:13;3.00;82.20
73137;DHT22;62977;45.636;11.750;2022-12-20T05:40:39;2.80;81.90
73137;DHT22;62977;45.636;11.750;2022-12-20T05:43:06;2.80;81.80
73137;DHT22;62977;45.636;11.750;2022-12-20T05:45:32;3.10;81.90
73137;DHT22;62977;45.636;11.750;2022-12-20T05:47:58;3.10;81.60
73137;DHT22;62977;45.636;11.750;2022-12-20T05:50:24;3.10;81.80
73137;DHT22;62977;45.636;11.750;2022-12-20T05:52:50;3.20;81.50
73137;DHT22;62977;45.636;11.750;2022-12-20T05:55:16;2.80;81.60
73137;DHT22;62977;45.636;11.750;2022-12-20T05:57:41;3.10;81.60
73137;DHT22;62977;45.636;11.750;2022-12-20T06:00:08;2.80;81.90
73137;DHT22;62977;45.636;11.750;2022-12-20T06:02:35;2.80;81.80
73137;DHT22;62977;45.636;11.750;2022-12-20T06:05:00;2.70;81.80
73137;DHT22;62977;45.636;11.750;2022-12-20T06:07:27;2.60;81.80
73137;DHT22;62977;45.636;11.750;2022-12-20T06:09:54;2.90;81.50
73137;DHT22;62977;45.636;11.750;2022-12-20T06:12:20;2.80;81.80
73137;DHT22;62977;45.636;11.750;2022-12-20T06:14:46;3.00;81.60
73137;DHT22;62977;45.636;11.750;2022-12-20T06:17:12;3.10;81.50
73137;DHT22;62977;45.636;11.750;2022-12-20T06:19:38;3.10;81.40
73137;DHT22;62977;45.636;11.750;2022-12-20T06:22:06;3.00;81.60
73137;DHT22;62977;45.636;11.750;2022-12-20T06:24:33;3.10;81.60
73137;DHT22;62977;45.636;11.750;2022-12-20T06:26:59;3.00;81.70
73137;DHT22;62977;45.636;11.750;2022-12-20T06:29:25;3.10;81.40
73137;DHT22;62977;45.636;11.750;2022-12-20T06:31:50;3.20;81.40
73137;DHT22;62977;45.636;11.750;2022-12-20T06:34:17;3.20;81.30
73137;DHT22;62977;45.636;11.750;2022-12-20T06:36:42;3.10;81.00
73137;DHT22;62977;45.636;11.750;2022-12-20T06:39:09;3.30;81.10
73137;DHT22;62977;45.636;11.750;2022-12-20T06:41:35;3.40;80.90
73137;DHT22;62977;45.636;11.750;2022-12-20T06:44:01;3.10;81.00
73137;DHT22;62977;45.636;11.750;2022-12-20T06:46:27;3.20;80.90
73137;DHT22;62977;45.636;11.750;2022-12-20T06:48:55;3.30;80.90
73137;DHT22;62977;45.636;11.750;2022-12-20T06:51:21;3.40;81.10
73137;DHT22;62977;45.636;11.750;2022-12-20T06:53:47;3.50;81.00
73137;DHT22;62977;45.636;11.750;2022-12-20T06:56:12;3.60;80.90
73137;DHT22;62977;45.636;11.750;2022-12-20T06:58:38;3.50;80.70
73137;DHT22;62977;45.636;11.750;2022-12-20T07:01:04;3.40;80.60
73137;DHT22;62977;45.636;11.750;2022-12-20T07:03:30;3.50;80.60
73137;DHT22;62977;45.636;11.750;2022-12-20T07:05:55;3.60;80.20
73137;DHT22;62977;45.636;11.750;2022-12-20T07:08:22;3.50;80.20
73137;DHT22;62977;45.636;11.750;2022-12-20T07:10:48;3.50;80.30
73137;DHT22;62977;45.636;11.750;2022-12-20T07:13:14;3.50;80.40
73137;DHT22;62977;45.636;11.750;2022-12-20T07:15:40;3.70;80.80
73137;DHT22;62977;45.636;11.750;2022-12-20T07:18:06;3.70;81.00
73137;DHT22;62977;45.636;11.750;2022-12-20T07:20:32;3.60;80.70
73137;DHT22;62977;45.636;11.750;2022-12-20T07:22:57;3.50;80.90
73137;DHT22;62977;45.636;11.750;2022-12-20T07:25:24;3.70;80.90
73137;DHT22;62977;45.636;11.750;2022-12-20T07:27:50;3.50;81.00
73137;DHT22;62977;45.636;11.750;2022-12-20T07:30:17;3.60;81.00
73137;DHT22;62977;45.636;11.750;2022-12-20T07:32:43;3.80;80.80
73137;DHT22;62977;45.636;11.750;2022-12-20T07:35:10;3.70;80.80
73137;DHT22;62977;45.636;11.750;2022-12-20T07:37:36;3.90;79.70
73137;DHT22;62977;45.636;11.750;2022-12-20T07:40:02;3.90;79.60
73137;DHT22;62977;45.636;11.750;2022-12-20T07:42:28;4.10;80.00
73137;DHT22;62977;45.636;11.750;2022-12-20T07:44:54;4.20;79.80
73137;DHT22;62977;45.636;11.750;2022-12-20T07:47:19;4.30;79.50
73137;DHT22;62977;45.636;11.750;2022-12-20T07:49:45;4.00;79.20
73137;DHT22;62977;45.636;11.750;2022-12-20T07:52:12;4.00;79.80
73137;DHT22;62977;45.636;11.750;2022-12-20T07:54:52;3.90;80.40
73137;DHT22;62977;45.636;11.750;2022-12-20T07:57:24;3.90;80.80
73137;DHT22;62977;45.636;11.750;2022-12-20T07:59:53;4.10;80.80
73137;DHT22;62977;45.636;11.750;2022-12-20T08:02:27;3.90;80.90
73137;DHT22;62977;45.636;11.750;2022-12-20T08:04:55;4.20;80.80
73137;DHT22;62977;45.636;11.750;2022-12-20T08:07:22;4.30;80.70
73137;DHT22;62977;45.636;11.750;2022-12-20T08:09:48;4.10;80.60
73137;DHT22;62977;45.636;11.750;2022-12-20T08:12:15;4.10;80.80
73137;DHT22;62977;45.636;11.750;2022-12-20T08:14:42;4.10;81.00
73137;DHT22;62977;45.636;11.750;2022-12-20T08:17:08;4.20;81.00
73137;DHT22;62977;45.636;11.750;2022-12-20T08:19:35;4.30;81.30
73137;DHT22;62977;45.636;11.750;2022-12-20T08:22:01;4.10;81.30
73137;DHT22;62977;45.636;11.750;2022-12-20T08:24:26;4.40;81.00
73137;DHT22;62977;45.636;11.750;2022-12-20T08:26:52;4.30;80.60
73137;DHT22;62977;45.636;11.750;2022-12-20T08:29:18;4.30;80.60
73137;DHT22;62977;45.636;11.750;2022-12-20T08:31:43;4.60;80.50
73137;DHT22;62977;45.636;11.750;2022-12-20T08:34:09;4.70;80.10
73137;DHT22;62977;45.636;11.750;2022-12-20T08:36:35;4.60;80.00
73137;DHT22;62977;45.636;11.750;2022-12-20T08:39:02;5.00;79.70
73137;DHT22;62977;45.636;11.750;2022-12-20T08:41:28;5.20;79.20
73137;DHT22;62977;45.636;11.750;2022-12-20T08:43:54;5.20;78.70
73137;DHT22;62977;45.636;11.750;2022-12-20T08:46:19;5.10;78.60
73137;DHT22;62977;45.636;11.750;2022-12-20T08:48:45;5.20;78.00
73137;DHT22;62977;45.636;11.750;2022-12-20T08:51:11;5.30;78.10
73137;DHT22;62977;45.636;11.750;2022-12-20T08:53:37;5.20;77.80
73137;DHT22;62977;45.636;11.750;2022-12-20T08:56:08;5.50;78.30
73137;DHT22;62977;45.636;11.750;2022-12-20T08:58:35;5.40;77.90
73137;DHT22;62977;45.636;11.750;2022-12-20T09:01:03;5.30;78.40
73137;DHT22;62977;45.636;11.750;2022-12-20T09:03:32;5.50;78.00
73137;DHT22;62977;45.636;11.750;2022-12-20T09:05:58;5.40;77.90
73137;DHT22;62977;45.636;11.750;2022-12-20T09:08:26;5.50;77.50
73137;DHT22;62977;45.636;11.750;2022-12-20T09:10:52;5.70;77.20
73137;DHT22;62977;45.636;11.750;2022-12-20T09:13:18;5.80;77.60
73137;DHT22;62977;45.636;11.750;2022-12-20T09:15:43;5.80;77.40
73137;DHT22;62977;45.636;11.750;2022-12-20T09:18:10;5.70;77.00
73137;DHT22;62977;45.636;11.750;2022-12-20T09:20:41;5.70;77.20
73137;DHT22;62977;45.636;11.750;2022-12-20T09:23:08;5.80;77.60
73137;DHT22;62977;45.636;11.750;2022-12-20T09:25:34;5.70;77.30
73137;DHT22;62977;45.636;11.750;2022-12-20T09:28:02;5.90;77.80
73137;DHT22;62977;45.636;11.750;2022-12-20T09:30:28;5.90;77.70
73137;DHT22;62977;45.636;11.750;2022-12-20T09:32:54;6.00;77.60
73137;DHT22;62977;45.636;11.750;2022-12-20T09:35:21;6.00;77.60
73137;DHT22;62977;45.636;11.750;2022-12-20T09:37:47;6.00;77.20
73137;DHT22;62977;45.636;11.750;2022-12-20T09:40:17;6.00;77.20
73137;DHT22;62977;45.636;11.750;2022-12-20T09:42:46;6.10;76.10
73137;DHT22;62977;45.636;11.750;2022-12-20T09:45:24;6.20;75.90
73137;DHT22;62977;45.636;11.750;2022-12-20T09:47:50;6.20;75.70
73137;DHT22;62977;45.636;11.750;2022-12-20T09:50:18;6.20;75.40
73137;DHT22;62977;45.636;11.750;2022-12-20T09:55:40;6.20;75.80
73137;DHT22;62977;45.636;11.750;2022-12-20T10:00:47;6.40;76.00
73137;DHT22;62977;45.636;11.750;2022-12-20T10:03:23;6.30;75.40
73137;DHT22;62977;45.636;11.750;2022-12-20T10:05:55;6.60;75.60
73137;DHT22;62977;45.636;11.750;2022-12-20T10:17:03;6.60;75.60
73137;DHT22;62977;45.636;11.750;2022-12-20T10:22:29;6.50;76.50
73137;DHT22;62977;45.636;11.750;2022-12-20T10:27:42;6.70;76.80
73137;DHT22;62977;45.636;11.750;2022-12-20T10:30:17;7.00;76.90
73137;DHT22;62977;45.636;11.750;2022-12-20T10:32:54;7.10;76.60
73137;DHT22;62977;45.636;11.750;2022-12-20T10:35:29;7.00;76.50
73137;DHT22;62977;45.636;11.750;2022-12-20T10:37:59;7.10;76.60
73137;DHT22;62977;45.636;11.750;2022-12-20T10:40:35;7.10;76.30
73137;DHT22;62977;45.636;11.750;2022-12-20T10:43:03;7.10;76.50
73137;DHT22;62977;45.636;11.750;2022-12-20T10:45:37;7.00;76.10
73137;DHT22;62977;45.636;11.750;2022-12-20T10:48:06;6.90;76.50
73137;DHT22;62977;45.636;11.750;2022-12-20T10:50:59;7.10;76.60
73137;DHT22;62977;45.636;11.750;2022-12-20T10:53:25;7.10;76.40
73137;DHT22;62977;45.636;11.750;2022-12-20T10:55:54;7.20;76.60
73137;DHT22;62977;45.636;11.750;2022-12-20T10:58:36;7.00;76.00
73137;DHT22;62977;45.636;11.750;2022-12-20T11:01:14;7.30;75.80
73137;DHT22;62977;45.636;11.750;2022-12-20T11:04:01;7.50;75.90
73137;DHT22;62977;45.636;11.750;2022-12-20T11:06:43;7.70;76.20
73137;DHT22;62977;45.636;11.750;2022-12-20T11:09:23;8.10;75.40
73137;DHT22;62977;45.636;11.750;2022-12-20T11:12:04;8.10;75.50
73137;DHT22;62977;45.636;11.750;2022-12-20T11:14:32;8.10;75.40
73137;DHT22;62977;45.636;11.750;2022-12-20T11:20:07;8.00;75.70
73137;DHT22;62977;45.636;11.750;2022-12-20T11:31:19;8.60;73.70
73137;DHT22;62977;45.636;11.750;2022-12-20T11:41:49;9.10;72.60
73137;DHT22;62977;45.636;11.750;2022-12-20T11:44:41;8.90;72.30
73137;DHT22;62977;45.636;11.750;2022-12-20T11:58:18;9.90;71.30
73137;DHT22;62977;45.636;11.750;2022-12-20T12:01:09;9.90;71.70
73137;DHT22;62977;45.636;11.750;2022-12-20T12:03:40;9.80;71.50
73137;DHT22;62977;45.636;11.750;2022-12-20T12:06:27;9.70;71.50
73137;DHT22;62977;45.636;11.750;2022-12-20T12:11:42;9.80;71.20
73137;DHT22;62977;45.636;11.750;2022-12-20T12:17:12;9.70;71.40
73137;DHT22;62977;45.636;11.750;2022-12-20T12:19:42;9.50;71.10
73137;DHT22;62977;45.636;11.750;2022-12-20T12:22:15;9.30;71.60
73137;DHT22;62977;45.636;11.750;2022-12-20T12:24:47;9.10;71.00
73137;DHT22;62977;45.636;11.750;2022-12-20T12:27:24;9.20;71.60
73137;DHT22;62977;45.636;11.750;2022-12-20T12:29:52;9.20;71.10
73137;DHT22;62977;45.636;11.750;2022-12-20T12:32:27;9.00;71.20
73137;DHT22;62977;45.636;11.750;2022-12-20T12:43:55;9.20;70.20
73137;DHT22;62977;45.636;11.750;2022-12-20T12:46:28;9.40;70.70
73137;DHT22;62977;45.636;11.750;2022-12-20T12:51:28;9.40;71.00
73137;DHT22;62977;45.636;11.750;2022-12-20T12:54:03;9.20;71.00
73137;DHT22;62977;45.636;11.750;2022-12-20T12:56:35;9.20;71.60
73137;DHT22;62977;45.636;11.750;2022-12-20T13:04:21;9.30;71.20
73137;DHT22;62977;45.636;11.750;2022-12-20T13:11:51;9.40;71.20
73137;DHT22;62977;45.636;11.750;2022-12-20T13:16:47;9.80;71.40
73137;DHT22;62977;45.636;11.750;2022-12-20T13:19:38;9.80;70.60
73137;DHT22;62977;45.636;11.750;2022-12-20T13:27:40;11.20;70.20
73137;DHT22;62977;45.636;11.750;2022-12-20T13:37:53;9.40;70.70
73137;DHT22;62977;45.636;11.750;2022-12-20T13:40:51;9.50;70.50
73137;DHT22;62977;45.636;11.750;2022-12-20T13:48:58;8.50;72.10
73137;DHT22;62977;45.636;11.750;2022-12-20T13:51:28;8.40;71.70
73137;DHT22;62977;45.636;11.750;2022-12-20T13:54:03;8.20;71.00
73137;DHT22;62977;45.636;11.750;2022-12-20T13:56:49;8.10;71.00
73137;DHT22;62977;45.636;11.750;2022-12-20T13:59:29;8.10;70.80
73137;DHT22;62977;45.636;11.750;2022-12-20T14:01:59;8.00;70.80
73137;DHT22;62977;45.636;11.750;2022-12-20T14:04:36;8.10;71.30
73137;DHT22;62977;45.636;11.750;2022-12-20T14:07:03;8.00;71.80
73137;DHT22;62977;45.636;11.750;2022-12-20T14:09:37;8.20;71.70
73137;DHT22;62977;45.636;11.750;2022-12-20T14:12:21;7.80;72.20
73137;DHT22;62977;45.636;11.750;2022-12-20T14:14:48;8.00;72.50
73137;DHT22;62977;45.636;11.750;2022-12-20T14:17:27;7.90;72.90
73137;DHT22;62977;45.636;11.750;2022-12-20T14:22:36;7.80;73.00
73137;DHT22;62977;45.636;11.750;2022-12-20T14:25:05;7.70;73.00
73137;DHT22;62977;45.636;11.750;2022-12-20T14:27:34;7.70;73.10
73137;DHT22;62977;45.636;11.750;2022-12-20T14:30:00;7.80;73.00
73137;DHT22;62977;45.636;11.750;2022-12-20T14:32:26;7.80;73.20
73137;DHT22;62977;45.636;11.750;2022-12-20T14:34:52;7.70;73.20
73137;DHT22;62977;45.636;11.750;2022-12-20T14:37:32;7.80;73.00
73137;DHT22;62977;45.636;11.750;2022-12-20T14:42:38;7.60;73.80
73137;DHT22;62977;45.636;11.750;2022-12-20T14:45:25;7.70;73.60
73137;DHT22;62977;45.636;11.750;2022-12-20T14:48:04;7.70;73.70
73137;DHT22;62977;45.636;11.750;2022-12-20T14:50:36;7.70;74.10
73137;DHT22;62977;45.636;11.750;2022-12-20T14:53:03;7.70;74.20
73137;DHT22;62977;45.636;11.750;2022-12-20T14:55:38;7.40;74.60
73137;DHT22;62977;45.636;11.750;2022-12-20T14:58:29;7.50;74.70
73137;DHT22;62977;45.636;11.750;2022-12-20T15:01:00;7.50;74.60
73137;DHT22;62977;45.636;11.750;2022-12-20T15:03:27;7.30;74.40
73137;DHT22;62977;45.636;11.750;2022-12-20T15:05:57;7.30;74.80
73137;DHT22;62977;45.636;11.750;2022-12-20T15:08:32;7.30;74.80
73137;DHT22;62977;45.636;11.750;2022-12-20T15:13:41;7.30;75.10
73137;DHT22;62977;45.636;11.750;2022-12-20T15:16:16;7.20;75.40
73137;DHT22;62977;45.636;11.750;2022-12-20T15:18:47;7.20;75.50
73137;DHT22;62977;45.636;11.750;2022-12-20T15:21:17;7.20;75.50
73137;DHT22;62977;45.636;11.750;2022-12-20T15:23:50;6.90;75.90
73137;DHT22;62977;45.636;11.750;2022-12-20T15:26:19;6.90;76.00
73137;DHT22;62977;45.636;11.750;2022-12-20T15:28:45;6.90;76.00
73137;DHT22;62977;45.636;11.750;2022-12-20T15:31:16;6.90;76.10
73137;DHT22;62977;45.636;11.750;2022-12-20T15:33:43;6.80;76.20
73137;DHT22;62977;45.636;11.750;2022-12-20T15:36:17;6.80;76.20
73137;DHT22;62977;45.636;11.750;2022-12-20T15:38:43;6.80;76.00
73137;DHT22;62977;45.636;11.750;2022-12-20T15:41:23;6.70;76.40
73137;DHT22;62977;45.636;11.750;2022-12-20T15:43:55;6.70;76.50
73137;DHT22;62977;45.636;11.750;2022-12-20T15:46:22;6.60;76.80
73137;DHT22;62977;45.636;11.750;2022-12-20T15:48:48;6.60;76.70
73137;DHT22;62977;45.636;11.750;2022-12-20T15:51:23;6.40;76.90
73137;DHT22;62977;45.636;11.750;2022-12-20T15:53:50;6.40;76.90
73137;DHT22;62977;45.636;11.750;2022-12-20T15:56:19;6.40;77.00
73137;DHT22;62977;45.636;11.750;2022-12-20T15:58:46;6.30;77.20
73137;DHT22;62977;45.636;11.750;2022-12-20T16:01:16;6.10;77.40
73137;DHT22;62977;45.636;11.750;2022-12-20T16:03:43;6.10;77.30
73137;DHT22;62977;45.636;11.750;2022-12-20T16:06:11;6.10;77.50
73137;DHT22;62977;45.636;11.750;2022-12-20T16:08:40;6.10;77.50
73137;DHT22;62977;45.636;11.750;2022-12-20T16:11:19;5.60;78.00
73137;DHT22;62977;45.636;11.750;2022-12-20T16:13:45;5.60;78.40
73137;DHT22;62977;45.636;11.750;2022-12-20T16:16:24;5.60;78.50
73137;DHT22;62977;45.636;11.750;2022-12-20T16:18:50;5.40;78.80
73137;DHT22;62977;45.636;11.750;2022-12-20T16:24:16;5.60;78.90
73137;DHT22;62977;45.636;11.750;2022-12-20T16:26:42;5.70;78.70
73137;DHT22;62977;45.636;11.750;2022-12-20T16:29:08;5.90;78.50
73137;DHT22;62977;45.636;11.750;2022-12-20T16:31:38;5.90;78.60
73137;DHT22;62977;45.636;11.750;2022-12-20T16:34:06;6.00;78.50
73137;DHT22;62977;45.636;11.750;2022-12-20T16:36:32;5.90;78.40
73137;DHT22;62977;45.636;11.750;2022-12-20T16:38:58;5.90;78.20
73137;DHT22;62977;45.636;11.750;2022-12-20T16:41:26;5.80;78.30
73137;DHT22;62977;45.636;11.750;2022-12-20T16:43:54;5.90;78.40
73137;DHT22;62977;45.636;11.750;2022-12-20T16:46:21;5.50;78.50
73137;DHT22;62977;45.636;11.750;2022-12-20T16:48:47;5.50;78.60
73137;DHT22;62977;45.636;11.750;2022-12-20T16:53:47;5.50;79.10
73137;DHT22;62977;45.636;11.750;2022-12-20T16:56:13;5.50;78.80
73137;DHT22;62977;45.636;11.750;2022-12-20T16:58:39;5.50;78.90
73137;DHT22;62977;45.636;11.750;2022-12-20T17:01:05;5.60;78.70
73137;DHT22;62977;45.636;11.750;2022-12-20T17:03:30;5.50;78.80
73137;DHT22;62977;45.636;11.750;2022-12-20T17:05:56;5.40;79.00
73137;DHT22;62977;45.636;11.750;2022-12-20T17:08:21;5.40;79.30
73137;DHT22;62977;45.636;11.750;2022-12-20T17:10:47;5.40;79.30
73137;DHT22;62977;45.636;11.750;2022-12-20T17:13:14;5.40;79.40
73137;DHT22;62977;45.636;11.750;2022-12-20T17:15:39;5.30;79.30
73137;DHT22;62977;45.636;11.750;2022-12-20T17:18:07;5.20;79.50
73137;DHT22;62977;45.636;11.750;2022-12-20T17:20:33;4.90;79.90
73137;DHT22;62977;45.636;11.750;2022-12-20T17:22:59;5.10;79.90
73137;DHT22;62977;45.636;11.750;2022-12-20T17:25:31;5.20;80.10
73137;DHT22;62977;45.636;11.750;2022-12-20T17:27:57;5.20;79.70
73137;DHT22;62977;45.636;11.750;2022-12-20T17:30:24;5.20;79.90
73137;DHT22;62977;45.636;11.750;2022-12-20T17:32:51;5.20;80.00
73137;DHT22;62977;45.636;11.750;2022-12-20T17:35:18;5.10;79.90
73137;DHT22;62977;45.636;11.750;2022-12-20T17:37:46;5.20;79.90
73137;DHT22;62977;45.636;11.750;2022-12-20T17:40:13;5.30;80.00
73137;DHT22;62977;45.636;11.750;2022-12-20T17:42:39;5.30;79.80
73137;DHT22;62977;45.636;11.750;2022-12-20T17:45:05;5.10;80.10
73137;DHT22;62977;45.636;11.750;2022-12-20T17:47:31;5.20;80.00
73137;DHT22;62977;45.636;11.750;2022-12-20T17:49:56;5.20;80.60
73137;DHT22;62977;45.636;11.750;2022-12-20T17:52:22;5.10;80.40
73137;DHT22;62977;45.636;11.750;2022-12-20T17:54:47;5.10;80.20
73137;DHT22;62977;45.636;11.750;2022-12-20T17:57:14;5.20;80.00
73137;DHT22;62977;45.636;11.750;2022-12-20T17:59:40;5.00;80.10